createdAt,value
2023-11-18T00:00:35.301Z,101470.97
2023-11-18T00:03:03.593Z,101456.31
2023-11-18T00:05:31.373Z,101454.44
2023-11-18T00:07:59.785Z,101448.28
2023-11-18T00:10:27.737Z,101465.81
2023-11-18T00:12:57.503Z,101464.97
2023-11-18T00:15:25.154Z,101459.25
2023-11-18T00:17:54.590Z,101458.50
2023-11-18T00:20:25.140Z,101467.22
2023-11-18T00:22:54.109Z,101455.50
2023-11-18T00:25:22.523Z,101455.31
2023-11-18T00:27:50.215Z,101460.00
2023-11-18T00:30:20.545Z,101444.41
2023-11-18T00:32:49.125Z,101441.09
2023-11-18T00:35:17.551Z,101436.34
2023-11-18T00:37:45.357Z,101422.38
2023-11-18T00:40:13.562Z,101434.53
2023-11-18T00:42:41.447Z,101437.31
2023-11-18T00:45:09.844Z,101439.19
2023-11-18T00:47:39.640Z,101456.81
2023-11-18T00:50:09.599Z,101455.50
2023-11-18T00:52:39.909Z,101455.50
2023-11-18T00:55:09.918Z,101459.66
2023-11-18T00:57:38.956Z,101473.38
2023-11-18T01:00:08.547Z,101452.72
2023-11-18T01:02:36.262Z,101456.63
2023-11-18T01:05:05.939Z,101452.19
2023-11-18T01:07:34.751Z,101428.50
2023-11-18T01:10:03.589Z,101443.38
2023-11-18T01:12:31.376Z,101446.16
2023-11-18T01:14:59.361Z,101442.63
2023-11-18T01:17:27.601Z,101443.34
2023-11-18T01:19:55.377Z,101446.88
2023-11-18T01:22:25.095Z,101456.28
2023-11-18T01:24:53.582Z,101451.16
2023-11-18T01:27:22.138Z,101460.06
2023-11-18T01:29:49.859Z,101469.88
2023-11-18T01:32:18.714Z,101487.50
2023-11-18T01:34:51.280Z,101498.09
2023-11-18T01:37:23.615Z,101474.91
2023-11-18T01:39:52.696Z,101480.34
2023-11-18T01:42:20.642Z,101491.06
2023-11-18T01:44:48.489Z,101489.00
2023-11-18T01:47:17.628Z,101473.69
2023-11-18T01:49:45.638Z,101488.88
2023-11-18T01:52:13.543Z,101494.50
2023-11-18T01:54:46.643Z,101483.94
2023-11-18T01:57:17.180Z,101467.69
2023-11-18T01:59:45.635Z,101457.16
2023-11-18T02:02:14.293Z,101479.47
2023-11-18T02:04:42.677Z,101463.75
2023-11-18T02:07:10.658Z,101469.00
2023-11-18T02:09:38.728Z,101510.88
2023-11-18T02:12:12.652Z,101510.56
2023-11-18T02:14:42.273Z,101498.28
2023-11-18T02:17:12.667Z,101474.16
2023-11-18T02:19:41.434Z,101469.03
2023-11-18T02:22:09.677Z,101474.03
2023-11-18T02:24:38.665Z,101483.19
2023-11-18T02:27:08.701Z,101469.19
2023-11-18T02:29:38.426Z,101495.63
2023-11-18T02:32:13.583Z,101471.47
2023-11-18T02:34:44.733Z,101468.31
2023-11-18T02:37:13.980Z,101475.75
2023-11-18T02:39:43.885Z,101458.19
2023-11-18T02:42:14.902Z,101470.81
2023-11-18T02:44:43.685Z,101501.19
2023-11-18T02:47:11.425Z,101514.28
2023-11-18T02:49:40.087Z,101499.59
2023-11-18T02:52:11.774Z,101461.47
2023-11-18T02:54:39.512Z,101468.31
2023-11-18T02:57:07.190Z,101453.00
2023-11-18T02:59:36.713Z,101450.03
2023-11-18T03:02:04.691Z,101472.25
2023-11-18T03:04:32.723Z,101466.28
2023-11-18T03:07:01.061Z,101454.66
2023-11-18T03:09:29.729Z,101466.75
2023-11-18T03:12:00.589Z,101466.25
2023-11-18T03:14:29.770Z,101423.22
2023-11-18T03:16:59.798Z,101442.22
2023-11-18T03:19:27.568Z,101436.81
2023-11-18T03:21:55.740Z,101421.41
2023-11-18T03:24:23.417Z,101420.34
2023-11-18T03:26:52.752Z,101460.41
2023-11-18T03:29:20.382Z,101462.72
2023-11-18T03:31:49.836Z,101450.81
2023-11-18T03:34:20.944Z,101448.06
2023-11-18T03:36:49.886Z,101437.59
2023-11-18T03:39:17.587Z,101442.16
2023-11-18T03:41:46.755Z,101452.69
2023-11-18T03:44:14.441Z,101455.69
2023-11-18T03:46:42.789Z,101425.03
2023-11-18T03:49:10.680Z,101422.59
2023-11-18T03:51:39.773Z,101442.91
2023-11-18T03:54:09.608Z,101410.81
2023-11-18T03:56:37.755Z,101407.94
2023-11-18T03:59:06.119Z,101419.72
2023-11-18T04:01:34.850Z,101434.81
2023-11-18T04:04:02.659Z,101454.97
2023-11-18T04:06:30.545Z,101478.41
2023-11-18T04:09:00.763Z,101461.06
2023-11-18T04:11:28.416Z,101479.84
2023-11-18T04:13:56.836Z,101460.34
2023-11-18T04:16:24.582Z,101443.72
2023-11-18T04:18:52.822Z,101456.13
2023-11-18T04:21:20.500Z,101439.03
2023-11-18T04:23:48.813Z,101444.91
2023-11-18T04:26:18.106Z,101427.09
2023-11-18T04:28:45.831Z,101446.94
2023-11-18T04:31:14.100Z,101429.25
2023-11-18T04:33:42.811Z,101427.47
2023-11-18T04:38:53.907Z,101440.16
2023-11-18T04:41:24.263Z,101419.59
2023-11-18T04:43:52.886Z,101441.25
2023-11-18T04:46:20.637Z,101419.25
2023-11-18T04:48:48.933Z,101408.94
2023-11-18T04:51:18.524Z,101389.97
2023-11-18T04:53:46.820Z,101402.44
2023-11-18T04:56:17.714Z,101389.59
2023-11-18T04:58:48.952Z,101388.69
2023-11-18T05:01:16.847Z,101384.16
2023-11-18T05:03:44.963Z,101388.81
2023-11-18T05:06:12.668Z,101375.41
2023-11-18T05:08:40.947Z,101374.78
2023-11-18T05:11:09.093Z,101367.81
2023-11-18T05:13:36.786Z,101372.34
2023-11-18T05:16:05.889Z,101355.38
2023-11-18T05:18:36.815Z,101381.00
2023-11-18T05:21:06.942Z,101373.69
2023-11-18T05:23:36.133Z,101351.91
2023-11-18T05:26:05.932Z,101344.19
2023-11-18T05:28:34.188Z,101337.84
2023-11-18T05:31:04.091Z,101320.09
2023-11-18T05:33:35.516Z,101335.16
2023-11-18T05:36:07.010Z,101327.09
2023-11-18T05:38:36.141Z,101347.59
2023-11-18T05:41:05.169Z,101327.69
2023-11-18T05:43:41.113Z,101324.81
2023-11-18T05:46:22.246Z,101328.47
2023-11-18T05:48:51.701Z,101319.84
2023-11-18T05:51:23.223Z,101339.03
2023-11-18T05:53:51.993Z,101345.34
2023-11-18T05:56:29.929Z,101322.19
2023-11-18T05:58:57.757Z,101326.31
2023-11-18T06:01:28.392Z,101325.91
2023-11-18T06:03:58.983Z,101329.75
2023-11-18T06:06:27.107Z,101335.38
2023-11-18T06:08:55.958Z,101355.28
2023-11-18T06:11:24.349Z,101336.75
2023-11-18T06:13:54.159Z,101341.91
2023-11-18T06:16:23.182Z,101333.34
2023-11-18T06:18:52.972Z,101339.59
2023-11-18T06:21:25.840Z,101345.88
2023-11-18T06:23:56.339Z,101321.03
2023-11-18T06:26:25.567Z,101321.38
2023-11-18T06:28:53.980Z,101314.66
2023-11-18T06:31:22.015Z,101309.91
2023-11-18T06:33:50.975Z,101322.22
2023-11-18T06:36:19.196Z,101337.22
2023-11-18T06:38:50.911Z,101331.66
2023-11-18T06:41:20.035Z,101333.75
2023-11-18T06:43:58.583Z,101323.13
2023-11-18T06:46:27.984Z,101342.19
2023-11-18T06:48:58.368Z,101365.50
2023-11-18T06:51:29.038Z,101340.41
2023-11-18T06:53:58.782Z,101335.00
2023-11-18T06:56:26.921Z,101341.75
2023-11-18T06:58:54.724Z,101318.53
2023-11-18T07:01:23.985Z,101305.47
2023-11-18T07:03:54.311Z,101303.31
2023-11-18T07:06:24.133Z,101311.06
2023-11-18T07:08:51.883Z,101322.81
2023-11-18T07:11:22.008Z,101318.94
2023-11-18T07:13:50.231Z,101320.91
2023-11-18T07:16:19.045Z,101333.63
2023-11-18T07:18:46.847Z,101334.19
2023-11-18T07:21:16.010Z,101343.63
2023-11-18T07:23:44.447Z,101352.00
2023-11-18T07:26:13.083Z,101345.88
2023-11-18T07:28:42.310Z,101342.69
2023-11-18T07:31:10.348Z,101328.03
2023-11-18T07:33:40.369Z,101357.06
2023-11-18T07:38:41.025Z,101339.91
2023-11-18T07:41:09.788Z,101309.59
2023-11-18T07:43:39.124Z,101315.59
2023-11-18T07:46:09.119Z,101340.53
2023-11-18T07:48:38.031Z,101326.81
2023-11-18T07:51:08.014Z,101308.22
2023-11-18T07:53:39.054Z,101320.66
2023-11-18T07:56:09.076Z,101334.81
2023-11-18T07:58:39.094Z,101310.53
2023-11-18T08:01:10.114Z,101324.06
2023-11-18T08:03:39.159Z,101312.50
2023-11-18T08:06:08.244Z,101312.84
2023-11-18T08:08:38.057Z,101310.97
2023-11-18T08:11:06.852Z,101306.94
2023-11-18T08:13:38.106Z,101320.03
2023-11-18T08:16:09.649Z,101322.75
2023-11-18T08:18:38.370Z,101344.75
2023-11-18T08:21:08.192Z,101330.50
2023-11-18T08:23:37.239Z,101317.72
2023-11-18T08:26:06.787Z,101339.34
2023-11-18T08:28:35.120Z,101331.28
2023-11-18T08:31:02.988Z,101330.59
2023-11-18T08:33:32.178Z,101325.72
2023-11-18T08:36:02.093Z,101305.19
2023-11-18T08:38:30.688Z,101315.25
2023-11-18T08:40:59.114Z,101291.34
2023-11-18T08:43:29.750Z,101313.81
2023-11-18T08:45:58.176Z,101328.44
2023-11-18T08:48:25.856Z,101311.41
2023-11-18T08:50:55.216Z,101299.88
2023-11-18T08:53:27.470Z,101317.25
2023-11-18T08:55:56.507Z,101327.84
2023-11-18T08:58:29.995Z,101309.31
2023-11-18T09:01:07.520Z,101304.25
2023-11-18T09:03:44.088Z,101312.34
2023-11-18T09:06:20.408Z,101315.56
2023-11-18T09:08:54.149Z,101313.19
2023-11-18T09:11:25.237Z,101296.31
2023-11-18T09:13:55.118Z,101296.34
2023-11-18T09:16:23.510Z,101286.81
2023-11-18T09:18:52.357Z,101255.63
2023-11-18T09:21:26.241Z,101274.00
2023-11-18T09:23:55.145Z,101282.75
2023-11-18T09:26:23.025Z,101258.69
2023-11-18T09:28:54.284Z,101247.34
2023-11-18T09:31:23.081Z,101237.88
2023-11-18T09:33:55.133Z,101241.03
2023-11-18T09:36:24.469Z,101253.31
2023-11-18T09:38:53.573Z,101226.31
2023-11-18T09:41:22.233Z,101201.09
2023-11-18T09:43:54.283Z,101231.34
2023-11-18T09:46:25.874Z,101224.31
2023-11-18T09:49:00.590Z,101198.34
2023-11-18T09:51:34.185Z,101206.00
2023-11-18T09:54:02.771Z,101202.91
2023-11-18T09:56:39.849Z,101192.72
2023-11-18T09:59:17.218Z,101239.41
2023-11-18T10:01:48.370Z,101195.47
2023-11-18T10:04:19.171Z,101210.91
2023-11-18T10:06:54.193Z,101188.72
2023-11-18T10:09:29.439Z,101221.91
2023-11-18T10:12:07.240Z,101231.84
2023-11-18T10:14:35.656Z,101237.16
2023-11-18T10:17:08.411Z,101210.25
2023-11-18T10:19:52.204Z,101185.84
2023-11-18T10:22:28.231Z,101202.03
2023-11-18T10:24:56.694Z,101183.38
2023-11-18T10:27:28.422Z,101192.50
2023-11-18T10:29:59.728Z,101203.72
2023-11-18T10:32:29.730Z,101203.34
2023-11-18T10:34:58.422Z,101196.16
2023-11-18T10:37:33.048Z,101206.19
2023-11-18T10:40:07.012Z,101196.25
2023-11-18T10:42:35.507Z,101194.06
2023-11-18T10:45:04.585Z,101174.38
2023-11-18T10:47:37.406Z,101159.75
2023-11-18T10:50:06.082Z,101168.97
2023-11-18T10:52:42.811Z,101147.94
2023-11-18T10:55:13.607Z,101151.19
2023-11-18T10:57:44.048Z,101147.09
2023-11-18T11:00:16.027Z,101148.22
2023-11-18T11:02:45.387Z,101135.72
2023-11-18T11:05:19.837Z,101125.13
2023-11-18T11:07:52.341Z,101113.09
2023-11-18T11:10:26.658Z,101108.84
2023-11-18T11:12:59.300Z,101120.09
2023-11-18T11:15:41.996Z,101098.81
2023-11-18T11:18:24.749Z,101077.78
2023-11-18T11:21:04.676Z,101080.66
2023-11-18T11:23:45.320Z,101073.78
2023-11-18T11:26:21.460Z,101095.38
2023-11-18T11:28:55.362Z,101104.09
2023-11-18T11:31:25.375Z,101102.06
2023-11-18T11:34:00.380Z,101065.94
2023-11-18T11:36:34.867Z,101068.19
2023-11-18T11:39:04.445Z,101068.72
2023-11-18T11:41:35.324Z,101070.78
2023-11-18T11:44:03.103Z,101087.88
2023-11-18T11:46:36.450Z,101081.09
2023-11-18T11:49:09.833Z,101067.72
2023-11-18T11:51:42.843Z,101053.03
2023-11-18T11:54:17.347Z,101059.00
2023-11-18T11:56:48.263Z,101052.91
2023-11-18T11:59:18.429Z,101061.38
2023-11-18T12:01:48.495Z,101092.94
2023-11-18T12:04:24.414Z,101086.16
2023-11-18T12:07:05.770Z,101087.81
2023-11-18T12:09:45.393Z,101066.81
2023-11-18T12:12:20.279Z,101075.75
2023-11-18T12:14:54.400Z,101049.94
2023-11-18T12:17:25.617Z,101045.31
2023-11-18T12:20:00.782Z,101054.25
2023-11-18T12:22:31.638Z,101013.41
2023-11-18T12:25:55.602Z,101026.94
2023-11-18T12:28:28.894Z,101020.06
2023-11-18T12:31:07.384Z,101012.13
2023-11-18T12:34:03.944Z,101012.75
2023-11-18T12:36:59.379Z,101011.09
2023-11-18T12:40:14.633Z,100979.88
2023-11-18T12:43:01.019Z,100984.38
2023-11-18T12:45:46.458Z,100978.19
2023-11-18T12:48:17.148Z,100993.38
2023-11-18T12:50:47.546Z,100991.78
2023-11-18T12:53:19.391Z,100963.84
2023-11-18T12:55:49.476Z,100962.91
2023-11-18T12:58:19.336Z,100967.28
2023-11-18T13:00:48.431Z,100947.78
2023-11-18T13:03:19.169Z,100946.34
2023-11-18T13:05:47.105Z,100925.69
2023-11-18T13:08:17.421Z,100915.38
2023-11-18T13:10:46.004Z,100939.44
2023-11-18T13:13:19.553Z,100940.00
2023-11-18T13:15:51.652Z,100950.72
2023-11-18T13:18:21.521Z,100925.41
2023-11-18T13:20:59.641Z,100920.31
2023-11-18T13:23:28.518Z,100939.59
2023-11-18T13:25:57.715Z,100921.41
2023-11-18T13:28:27.468Z,100930.19
2023-11-18T13:30:56.563Z,100915.38
2023-11-18T13:33:25.588Z,100922.00
2023-11-18T13:35:54.157Z,100902.22
2023-11-18T13:38:21.842Z,100894.50
2023-11-18T13:40:50.532Z,100890.69
2023-11-18T13:43:18.235Z,100866.63
2023-11-18T13:45:47.467Z,100892.72
2023-11-18T13:48:18.727Z,100893.06
2023-11-18T13:50:47.619Z,100878.50
2023-11-18T13:53:16.714Z,100892.03
2023-11-18T13:55:45.488Z,100857.84
2023-11-18T13:58:13.409Z,100841.53
2023-11-18T14:00:43.497Z,100847.38
2023-11-18T14:03:13.023Z,100864.06
2023-11-18T14:05:45.285Z,100837.28
2023-11-18T14:08:20.864Z,100862.00
2023-11-18T14:10:58.461Z,100845.66
2023-11-18T14:13:32.092Z,100847.44
2023-11-18T14:16:01.567Z,100852.66
2023-11-18T14:18:29.603Z,100841.69
2023-11-18T14:20:59.540Z,100825.31
2023-11-18T14:23:27.387Z,100808.94
2023-11-18T14:25:55.463Z,100799.66
2023-11-18T14:28:27.636Z,100799.53
2023-11-18T14:30:55.452Z,100780.72
2023-11-18T14:33:23.156Z,100771.03
2023-11-18T14:35:51.542Z,100768.09
2023-11-18T14:38:20.847Z,100755.31
2023-11-18T14:40:49.777Z,100755.16
2023-11-18T14:43:17.575Z,100736.69
2023-11-18T14:45:45.528Z,100728.63
2023-11-18T14:48:14.443Z,100737.63
2023-11-18T14:50:42.440Z,100717.34
2023-11-18T14:53:10.548Z,100708.31
2023-11-18T14:55:40.460Z,100696.56
2023-11-18T14:58:08.374Z,100691.34
2023-11-18T15:00:36.577Z,100680.19
2023-11-18T15:03:04.450Z,100679.91
2023-11-18T15:05:32.442Z,100702.19
2023-11-18T15:08:02.584Z,100707.34
2023-11-18T15:10:30.438Z,100694.78
2023-11-18T15:13:02.319Z,100673.59
2023-11-18T15:15:36.079Z,100658.53
2023-11-18T15:18:06.073Z,100649.63
2023-11-18T15:20:35.684Z,100630.50
2023-11-18T15:23:03.987Z,100619.03
2023-11-18T15:25:32.614Z,100601.78
2023-11-18T15:28:02.553Z,100611.75
2023-11-18T15:30:30.325Z,100583.00
2023-11-18T15:32:58.622Z,100585.13
2023-11-18T15:35:26.448Z,100591.03
2023-11-18T15:37:54.644Z,100571.16
2023-11-18T15:40:26.378Z,100566.84
2023-11-18T15:42:55.617Z,100538.34
2023-11-18T15:45:25.884Z,100561.22
2023-11-18T15:47:54.663Z,100571.97
2023-11-18T15:50:22.799Z,100546.00
2023-11-18T15:52:53.690Z,100534.09
2023-11-18T15:55:22.240Z,100535.59
2023-11-18T15:57:54.024Z,100519.34
2023-11-18T16:00:25.844Z,100520.50
2023-11-18T16:02:58.416Z,100509.44
2023-11-18T16:05:29.620Z,100508.22
2023-11-18T16:07:58.685Z,100488.44
2023-11-18T16:10:28.866Z,100468.03
2023-11-18T16:12:59.671Z,100486.91
2023-11-18T16:15:29.611Z,100490.88
2023-11-18T16:17:58.667Z,100471.94
2023-11-18T16:20:28.793Z,100477.38
2023-11-18T16:22:58.470Z,100463.66
2023-11-18T16:25:29.049Z,100447.47
2023-11-18T16:27:58.267Z,100451.56
2023-11-18T16:30:28.380Z,100439.06
2023-11-18T16:32:58.816Z,100434.91
2023-11-18T16:35:27.833Z,100412.66
2023-11-18T16:37:56.720Z,100421.16
2023-11-18T16:40:25.786Z,100422.25
2023-11-18T16:42:57.263Z,100428.56
2023-11-18T16:45:26.263Z,100423.00
2023-11-18T16:47:56.221Z,100418.44
2023-11-18T16:50:28.191Z,100406.97
2023-11-18T16:52:57.348Z,100406.00
2023-11-18T16:55:26.683Z,100391.38
2023-11-18T16:57:55.767Z,100395.47
2023-11-18T17:00:24.937Z,100388.66
2023-11-18T17:02:59.442Z,100393.13
2023-11-18T17:05:31.037Z,100387.72
2023-11-18T17:08:01.753Z,100391.66
2023-11-18T17:10:30.284Z,100373.09
2023-11-18T17:12:59.067Z,100375.75
2023-11-18T17:15:27.719Z,100379.31
2023-11-18T17:18:02.002Z,100365.59
2023-11-18T17:20:32.890Z,100368.13
2023-11-18T17:23:00.685Z,100352.19
2023-11-18T17:25:28.794Z,100330.44
2023-11-18T17:27:56.751Z,100315.22
2023-11-18T17:30:24.504Z,100325.03
2023-11-18T17:32:54.467Z,100316.28
2023-11-18T17:35:23.459Z,100303.03
2023-11-18T17:37:52.617Z,100297.94
2023-11-18T17:40:23.121Z,100284.31
2023-11-18T17:42:54.353Z,100305.28
2023-11-18T17:45:22.760Z,100293.88
2023-11-18T17:47:50.551Z,100289.41
2023-11-18T17:50:19.869Z,100284.31
2023-11-18T17:52:48.703Z,100286.25
2023-11-18T17:55:17.774Z,100275.38
2023-11-18T17:57:46.772Z,100250.09
2023-11-18T18:00:20.962Z,100279.00
2023-11-18T18:02:50.962Z,100271.88
2023-11-18T18:05:19.200Z,100266.19
2023-11-18T18:07:47.770Z,100263.59
2023-11-18T18:10:17.466Z,100267.63
2023-11-18T18:12:48.106Z,100270.13
2023-11-18T18:15:16.280Z,100255.19
2023-11-18T18:17:44.918Z,100248.75
2023-11-18T18:20:14.819Z,100234.03
2023-11-18T18:22:43.631Z,100243.53
2023-11-18T18:25:13.874Z,100254.28
2023-11-18T18:27:43.615Z,100263.75
2023-11-18T18:30:13.834Z,100256.88
2023-11-18T18:32:41.774Z,100243.06
2023-11-18T18:35:11.707Z,100246.91
2023-11-18T18:37:39.471Z,100241.28
2023-11-18T18:40:08.848Z,100217.84
2023-11-18T18:42:36.521Z,100249.78
2023-11-18T18:45:07.821Z,100241.50
2023-11-18T18:47:35.747Z,100224.41
2023-11-18T18:50:03.897Z,100206.78
2023-11-18T18:52:31.580Z,100198.94
2023-11-18T18:54:59.980Z,100199.66
2023-11-18T18:57:27.652Z,100169.19
2023-11-18T18:59:55.547Z,100161.34
2023-11-18T19:02:26.102Z,100161.69
2023-11-18T19:04:53.824Z,100160.00
2023-11-18T19:07:22.845Z,100171.25
2023-11-18T19:09:51.142Z,100161.91
2023-11-18T19:12:18.870Z,100175.28
2023-11-18T19:14:46.603Z,100168.69
2023-11-18T19:17:15.076Z,100173.06
2023-11-18T19:19:44.926Z,100170.78
2023-11-18T19:22:13.869Z,100147.84
2023-11-18T19:24:43.553Z,100160.19
2023-11-18T19:27:13.156Z,100163.31
2023-11-18T19:29:43.050Z,100159.91
2023-11-18T19:32:12.911Z,100156.69
2023-11-18T19:34:40.617Z,100160.00
2023-11-18T19:37:12.946Z,100137.88
2023-11-18T19:39:41.472Z,100136.34
2023-11-18T19:42:10.173Z,100126.34
2023-11-18T19:44:39.112Z,100126.22
2023-11-18T19:47:07.996Z,100102.97
2023-11-18T19:49:58.938Z,100095.00
2023-11-18T19:52:28.567Z,100094.91
2023-11-18T19:54:56.944Z,100062.19
2023-11-18T19:57:24.771Z,100079.84
2023-11-18T19:59:53.982Z,100059.28
2023-11-18T20:02:23.100Z,100058.66
2023-11-18T20:04:51.405Z,100057.75
2023-11-18T20:07:19.938Z,100040.13
2023-11-18T20:09:49.292Z,100048.81
2023-11-18T20:12:17.967Z,100042.16
2023-11-18T20:14:45.844Z,100050.50
2023-11-18T20:17:15.988Z,100037.81
2023-11-18T20:19:43.989Z,100033.78
2023-11-18T20:22:11.791Z,100042.78
2023-11-18T20:24:40.227Z,100032.56
2023-11-18T20:27:10.187Z,100035.03
2023-11-18T20:29:37.973Z,100018.50
2023-11-18T20:32:06.783Z,100040.56
2023-11-18T20:34:39.037Z,100000.66
2023-11-18T20:37:07.169Z,100006.41
2023-11-18T20:39:55.995Z,99999.72
2023-11-18T20:42:25.497Z,99997.47
2023-11-18T20:44:54.062Z,99987.81
2023-11-18T20:47:23.619Z,99971.69
2023-11-18T20:49:52.062Z,99962.06
2023-11-18T20:52:19.838Z,99983.66
2023-11-18T20:54:47.668Z,99976.88
2023-11-18T20:57:17.041Z,99976.16
2023-11-18T20:59:46.511Z,99969.13
2023-11-18T21:02:18.084Z,99965.59
2023-11-18T21:04:46.034Z,99959.09
2023-11-18T21:07:13.950Z,99945.31
2023-11-18T21:09:43.033Z,99944.44
2023-11-18T21:12:18.408Z,99919.59
2023-11-18T21:14:50.498Z,99929.78
2023-11-18T21:17:20.302Z,99934.97
2023-11-18T21:19:48.436Z,99946.66
2023-11-18T21:22:20.027Z,99947.16
2023-11-18T21:24:47.801Z,99929.88
2023-11-18T21:27:16.107Z,99931.69
2023-11-18T21:29:44.214Z,99920.09
2023-11-18T21:32:14.103Z,99914.44
2023-11-18T21:34:43.931Z,99950.00
2023-11-18T21:37:12.399Z,99963.97
2023-11-18T21:39:40.920Z,99966.63
2023-11-18T21:42:09.515Z,99928.63
2023-11-18T21:44:38.206Z,99927.63
2023-11-18T21:47:07.083Z,99922.56
2023-11-18T21:49:36.135Z,99929.75
2023-11-18T21:52:04.063Z,99934.81
2023-11-18T21:54:32.108Z,99934.31
2023-11-18T21:57:00.061Z,99923.94
2023-11-18T21:59:27.968Z,99913.84
2023-11-18T22:01:57.080Z,99917.41
2023-11-18T22:04:24.836Z,99911.34
2023-11-18T22:06:55.328Z,99903.59
2023-11-18T22:09:24.704Z,99896.97
2023-11-18T22:11:53.109Z,99879.34
2023-11-18T22:14:20.790Z,99897.00
2023-11-18T22:16:49.088Z,99886.56
2023-11-18T22:19:17.193Z,99877.09
2023-11-18T22:21:44.934Z,99879.53
2023-11-18T22:24:16.129Z,99868.25
2023-11-18T22:26:44.444Z,99874.69
2023-11-18T22:29:13.134Z,99846.19
2023-11-18T22:31:40.875Z,99862.72
2023-11-18T22:34:09.117Z,99856.25
2023-11-18T22:36:36.804Z,99856.94
2023-11-18T22:39:05.120Z,99869.50
2023-11-18T22:41:34.192Z,99852.28
2023-11-18T22:44:02.143Z,99848.16
2023-11-18T22:46:29.837Z,99830.94
2023-11-18T22:48:58.391Z,99826.03
2023-11-18T22:51:26.282Z,99835.53
2023-11-18T22:53:56.168Z,99838.09
2023-11-18T22:56:24.812Z,99841.09
2023-11-18T22:58:55.141Z,99816.25
2023-11-18T23:01:24.178Z,99807.47
2023-11-18T23:03:53.319Z,99811.41
2023-11-18T23:06:25.028Z,99825.72
2023-11-18T23:08:55.189Z,99836.44
2023-11-18T23:11:23.593Z,99829.41
2023-11-18T23:13:54.160Z,99825.09
2023-11-18T23:16:24.257Z,99825.88
2023-11-18T23:18:54.213Z,99821.94
2023-11-18T23:21:21.972Z,99835.38
2023-11-18T23:23:53.172Z,99800.78
2023-11-18T23:26:21.411Z,99803.25
2023-11-18T23:28:49.445Z,99803.34
2023-11-18T23:31:17.187Z,99806.63
2023-11-18T23:33:47.184Z,99797.19
2023-11-18T23:36:17.154Z,99795.22
2023-11-18T23:38:49.185Z,99774.75
2023-11-18T23:41:17.757Z,99760.50
2023-11-18T23:43:46.346Z,99784.00
2023-11-18T23:46:14.582Z,99814.28
2023-11-18T23:48:43.246Z,99802.22
2023-11-18T23:51:13.034Z,99773.00
2023-11-18T23:53:40.720Z,99795.09
2023-11-18T23:56:10.220Z,99784.69
2023-11-18T23:58:37.960Z,99775.28
